Terminal Aerodrome Forecast
Issued by NWS Boston, MA

Home | Current Version | Previous Version | Text Only | Print | Product List | Glossary On
Versions: 1 2 3 4 5 6 7 8 9 10 11 12 13 14 15 16 17 18 19 20 21 22 23 24 25 26 27 28 29 30 31 32 33 34 35 36 37 38 39 40 41 42 43 44 45 46 47 48
851
FTUS41 KBOX 242323
TAFBOS
TAF
KBOS 242323Z 2500/2606 27013G20KT P6SM FEW250
     FM250200 27009KT P6SM FEW250
     FM250500 27006KT P6SM FEW250
     FM251800 20012G19KT P6SM SCT060
     FM252100 20011G18KT P6SM BKN060
     FM260200 25007KT P6SM SCT060=

USA.gov is the U.S. government's official web portal to all federal, state and local government web resources and services.